createdAt,value
2022-07-29T00:01:42.933Z,5.90
2022-07-29T00:04:10.602Z,9.60
2022-07-29T00:06:37.967Z,3.58
2022-07-29T00:09:05.669Z,6.85
2022-07-29T00:11:33.139Z,6.22
2022-07-29T00:14:00.463Z,7.13
2022-07-29T00:16:27.841Z,4.38
2022-07-29T00:18:55.141Z,1.95
2022-07-29T00:21:22.524Z,4.13
2022-07-29T00:23:49.832Z,3.08
2022-07-29T00:26:17.131Z,2.15
2022-07-29T00:28:44.464Z,1.80
2022-07-29T00:31:11.927Z,1.60
2022-07-29T00:33:39.319Z,3.30
2022-07-29T00:36:06.995Z,1.50
2022-07-29T00:38:34.386Z,3.00
2022-07-29T00:41:01.730Z,3.00
2022-07-29T00:43:29.046Z,5.88
2022-07-29T00:45:56.664Z,3.30
2022-07-29T00:48:24.068Z,1.30
2022-07-29T00:50:51.777Z,3.40
2022-07-29T00:53:21.155Z,3.28
2022-07-29T00:55:48.688Z,5.28
2022-07-29T00:58:16.233Z,3.03
2022-07-29T01:00:50.334Z,1.92
2022-07-29T01:03:17.794Z,5.05
2022-07-29T01:05:48.428Z,2.08
2022-07-29T01:08:20.077Z,4.07
2022-07-29T01:10:48.238Z,2.97
2022-07-29T01:13:17.078Z,2.72
2022-07-29T01:15:55.521Z,1.30
2022-07-29T01:18:34.995Z,6.40
2022-07-29T01:21:05.289Z,3.38
2022-07-29T01:24:01.186Z,7.22
2022-07-29T01:26:43.764Z,12.47
2022-07-29T01:29:19.793Z,7.30
2022-07-29T01:32:00.906Z,5.65
2022-07-29T01:34:31.128Z,7.65
2022-07-29T01:37:16.476Z,4.75
2022-07-29T01:39:47.173Z,6.43
2022-07-29T01:42:14.493Z,8.30
2022-07-29T01:45:11.858Z,5.93
2022-07-29T01:48:11.227Z,9.40
2022-07-29T01:51:04.835Z,10.03
2022-07-29T01:53:39.867Z,10.00
2022-07-29T01:56:11.699Z,12.95
2022-07-29T01:58:42.529Z,6.47
2022-07-29T02:01:12.019Z,7.38
2022-07-29T02:03:44.225Z,3.90
2022-07-29T02:06:13.633Z,5.25
2022-07-29T02:08:42.187Z,3.57
2022-07-29T02:11:10.018Z,6.80
2022-07-29T02:13:38.580Z,7.85
2022-07-29T02:16:09.644Z,4.65
2022-07-29T02:18:40.080Z,3.00
2022-07-29T02:21:15.114Z,4.32
2022-07-29T02:23:50.692Z,4.32
2022-07-29T02:26:21.501Z,2.45
2022-07-29T02:28:51.219Z,2.10
2022-07-29T02:31:21.844Z,1.13
2022-07-29T02:33:50.824Z,4.53
2022-07-29T02:36:18.726Z,1.60
2022-07-29T02:38:52.941Z,4.38
2022-07-29T02:41:27.392Z,1.35
2022-07-29T02:44:10.275Z,2.53
2022-07-29T02:46:42.657Z,2.08
2022-07-29T02:49:25.172Z,1.60
2022-07-29T02:51:58.236Z,2.00
2022-07-29T02:54:47.001Z,2.22
2022-07-29T02:57:54.061Z,1.50
2022-07-29T03:00:28.966Z,1.00
2022-07-29T03:02:59.575Z,1.20
2022-07-29T03:05:27.923Z,1.50
2022-07-29T03:08:04.145Z,0.90
2022-07-29T03:10:33.776Z,1.02
2022-07-29T03:13:01.926Z,1.95
2022-07-29T03:15:30.336Z,1.55
2022-07-29T03:17:59.281Z,2.90
2022-07-29T03:20:27.156Z,3.28
2022-07-29T03:22:54.551Z,1.60
2022-07-29T03:25:21.994Z,1.23
2022-07-29T03:27:49.774Z,2.25
2022-07-29T03:30:21.769Z,4.72
2022-07-29T03:32:52.233Z,4.78
2022-07-29T03:35:21.044Z,2.10
2022-07-29T03:37:48.800Z,1.30
2022-07-29T03:40:22.448Z,3.33
2022-07-29T03:42:52.792Z,6.97
2022-07-29T03:45:20.705Z,3.60
2022-07-29T03:47:55.908Z,5.20
2022-07-29T03:50:28.188Z,4.60
2022-07-29T03:52:55.694Z,2.87
2022-07-29T03:55:23.380Z,1.90
2022-07-29T03:57:51.528Z,1.85
2022-07-29T04:00:19.044Z,2.47
2022-07-29T04:02:49.666Z,2.07
2022-07-29T04:05:18.870Z,1.73
2022-07-29T04:07:48.123Z,1.38
2022-07-29T04:10:30.299Z,1.80
2022-07-29T04:13:00.711Z,1.27
2022-07-29T04:15:31.211Z,2.00
2022-07-29T04:17:59.941Z,10.30
2022-07-29T04:20:27.393Z,12.43
2022-07-29T04:22:54.730Z,1.48
2022-07-29T04:25:22.124Z,6.50
2022-07-29T04:28:01.440Z,1.65
2022-07-29T04:30:29.201Z,1.70
2022-07-29T04:32:56.651Z,8.63
2022-07-29T04:35:24.023Z,6.53
2022-07-29T04:37:51.345Z,6.43
2022-07-29T04:40:18.703Z,6.07
2022-07-29T04:42:46.881Z,7.22
2022-07-29T04:45:16.150Z,11.13
2022-07-29T04:47:43.653Z,9.07
2022-07-29T04:50:11.546Z,8.70
2022-07-29T04:52:38.981Z,4.88
2022-07-29T04:55:07.196Z,10.57
2022-07-29T04:57:34.546Z,2.87
2022-07-29T05:00:02.039Z,6.80
2022-07-29T05:02:29.374Z,5.78
2022-07-29T05:04:56.779Z,1.50
2022-07-29T05:07:25.075Z,3.20
2022-07-29T05:09:52.385Z,3.33
2022-07-29T05:12:19.755Z,2.97
2022-07-29T05:14:47.047Z,5.30
2022-07-29T05:17:14.372Z,3.30
2022-07-29T05:19:41.664Z,4.30
2022-07-29T05:22:08.999Z,1.95
2022-07-29T05:24:36.377Z,2.30
2022-07-29T05:27:03.720Z,2.67
2022-07-29T05:29:44.126Z,1.67
2022-07-29T05:32:14.268Z,3.88
2022-07-29T05:34:50.938Z,5.53
2022-07-29T05:37:21.819Z,2.13
2022-07-29T05:39:56.897Z,2.55
2022-07-29T05:42:25.900Z,1.58
2022-07-29T05:44:53.810Z,2.20
2022-07-29T05:47:21.623Z,4.68
2022-07-29T05:49:49.562Z,2.30
2022-07-29T05:52:16.916Z,4.80
2022-07-29T05:54:45.413Z,4.35
2022-07-29T05:57:23.620Z,1.63
2022-07-29T05:59:52.034Z,3.13
2022-07-29T06:02:19.901Z,2.70
2022-07-29T06:04:47.251Z,9.25
2022-07-29T06:07:14.670Z,3.75
2022-07-29T06:09:42.009Z,2.97
2022-07-29T06:12:09.797Z,3.83
2022-07-29T06:14:38.919Z,2.30
2022-07-29T06:17:06.749Z,6.03
2022-07-29T06:19:37.487Z,3.72
2022-07-29T06:22:05.408Z,1.45
2022-07-29T06:24:32.724Z,3.22
2022-07-29T06:27:00.134Z,3.22
2022-07-29T06:29:27.447Z,2.78
2022-07-29T06:31:54.722Z,6.97
2022-07-29T06:34:22.111Z,6.60
2022-07-29T06:36:50.725Z,4.85
2022-07-29T06:39:18.427Z,2.15
2022-07-29T06:41:49.986Z,3.50
2022-07-29T06:44:19.127Z,4.38
2022-07-29T06:46:50.171Z,3.28
2022-07-29T06:49:17.651Z,1.80
2022-07-29T06:51:45.075Z,5.53
2022-07-29T06:54:12.425Z,5.00
2022-07-29T06:56:42.659Z,3.70
2022-07-29T06:59:11.807Z,4.55
2022-07-29T07:01:41.899Z,11.23
2022-07-29T07:04:10.039Z,23.63
2022-07-29T07:06:38.796Z,7.03
2022-07-29T07:09:06.163Z,3.70
2022-07-29T07:11:33.604Z,16.25
2022-07-29T07:14:03.922Z,10.80
2022-07-29T07:16:32.492Z,9.52
2022-07-29T07:19:09.417Z,4.65
2022-07-29T07:21:36.827Z,2.78
2022-07-29T07:24:04.420Z,3.67
2022-07-29T07:26:44.096Z,5.60
2022-07-29T07:29:12.437Z,3.92
2022-07-29T07:31:40.016Z,3.58
2022-07-29T07:34:07.421Z,2.83
2022-07-29T07:36:34.904Z,4.50
2022-07-29T07:39:02.418Z,4.07
2022-07-29T07:41:32.409Z,4.72
2022-07-29T07:44:00.342Z,8.23
2022-07-29T07:46:27.636Z,11.30
2022-07-29T07:48:55.503Z,16.58
2022-07-29T07:51:22.832Z,9.20
2022-07-29T07:53:53.063Z,37.13
2022-07-29T07:56:21.179Z,32.20
2022-07-29T07:58:50.138Z,42.50
2022-07-29T08:01:20.061Z,30.60
2022-07-29T08:03:47.798Z,23.07
2022-07-29T08:06:15.200Z,37.05
2022-07-29T08:08:43.629Z,7.45
2022-07-29T08:11:11.065Z,5.18
2022-07-29T08:13:39.544Z,13.67
2022-07-29T08:16:16.022Z,14.85
2022-07-29T08:18:44.910Z,28.20
2022-07-29T08:21:15.077Z,11.68
2022-07-29T08:23:59.765Z,15.15
2022-07-29T08:26:28.300Z,17.57
2022-07-29T08:28:55.703Z,20.83
2022-07-29T08:31:23.283Z,10.85
2022-07-29T08:33:50.804Z,6.63
2022-07-29T08:36:18.173Z,23.27
2022-07-29T08:38:45.488Z,25.35
2022-07-29T08:41:14.710Z,33.17
2022-07-29T08:43:42.872Z,44.83
2022-07-29T08:46:12.623Z,13.63
2022-07-29T08:48:41.994Z,19.45
2022-07-29T08:51:20.345Z,10.55
2022-07-29T08:53:49.383Z,7.32
2022-07-29T08:56:19.079Z,7.68
2022-07-29T08:58:52.051Z,15.20
2022-07-29T09:01:34.999Z,9.00
2022-07-29T09:04:06.880Z,7.85
2022-07-29T09:06:40.425Z,6.45
2022-07-29T09:09:09.354Z,7.60
2022-07-29T09:11:36.881Z,7.20
2022-07-29T09:14:04.279Z,2.67
2022-07-29T09:17:02.032Z,4.18
2022-07-29T09:19:37.861Z,2.80
2022-07-29T09:22:07.817Z,4.93
2022-07-29T09:24:48.424Z,2.10
2022-07-29T09:27:26.895Z,4.87
2022-07-29T09:30:07.584Z,4.25
2022-07-29T09:32:54.797Z,2.17
2022-07-29T09:35:25.097Z,2.78
2022-07-29T09:37:52.893Z,3.47
2022-07-29T09:40:26.471Z,5.22
2022-07-29T09:42:58.008Z,4.77
2022-07-29T09:45:33.464Z,4.00
2022-07-29T09:48:14.415Z,2.38
2022-07-29T09:50:43.577Z,1.90
2022-07-29T09:53:11.973Z,2.00
2022-07-29T09:55:53.097Z,1.73
2022-07-29T09:58:23.527Z,2.95
2022-07-29T10:00:53.837Z,1.70
2022-07-29T10:03:21.397Z,2.05
2022-07-29T10:06:06.457Z,1.83
2022-07-29T10:08:33.836Z,1.50
2022-07-29T10:11:18.336Z,1.58
2022-07-29T10:13:47.635Z,1.60
2022-07-29T10:16:17.096Z,6.22
2022-07-29T10:18:45.355Z,2.95
2022-07-29T10:21:22.448Z,3.90
2022-07-29T10:24:02.133Z,4.55
2022-07-29T10:26:31.449Z,3.85
2022-07-29T10:28:58.814Z,3.63
2022-07-29T10:31:36.416Z,4.55
2022-07-29T10:34:14.761Z,6.47
2022-07-29T10:36:45.092Z,24.83
2022-07-29T10:39:41.546Z,20.60
2022-07-29T10:42:33.321Z,31.90
2022-07-29T10:45:04.334Z,26.57
2022-07-29T10:47:32.240Z,23.57
2022-07-29T10:50:01.311Z,24.48
2022-07-29T10:52:59.720Z,22.48
2022-07-29T10:55:43.677Z,29.10
2022-07-29T10:58:20.152Z,24.23
2022-07-29T11:00:57.659Z,39.35
2022-07-29T11:03:50.461Z,35.67
2022-07-29T11:06:26.140Z,27.30
2022-07-29T11:09:18.196Z,33.00
2022-07-29T11:11:58.188Z,25.75
2022-07-29T11:15:02.507Z,25.40
2022-07-29T11:17:47.057Z,20.38
2022-07-29T11:20:32.623Z,17.52
2022-07-29T11:23:00.469Z,20.70
2022-07-29T11:25:42.958Z,10.57
2022-07-29T11:28:22.978Z,11.32
2022-07-29T11:30:54.178Z,9.68
2022-07-29T11:33:54.037Z,16.77
2022-07-29T11:36:19.499Z,14.40
2022-07-29T11:39:36.609Z,15.90
2022-07-29T11:42:30.478Z,12.88
2022-07-29T11:45:42.733Z,16.15
2022-07-29T11:48:29.366Z,5.80
2022-07-29T11:50:49.987Z,16.45
2022-07-29T11:53:17.337Z,12.47
2022-07-29T11:55:51.870Z,20.35
2022-07-29T11:58:26.009Z,26.33
2022-07-29T12:00:55.483Z,24.03
2022-07-29T12:03:32.952Z,22.35
2022-07-29T12:06:04.033Z,24.70
2022-07-29T12:08:40.368Z,39.90
2022-07-29T12:11:17.699Z,35.25
2022-07-29T12:13:49.253Z,29.30
2022-07-29T12:16:29.197Z,20.25
2022-07-29T12:19:02.407Z,10.93
2022-07-29T12:21:53.774Z,23.50
2022-07-29T12:24:26.883Z,21.02
2022-07-29T12:26:56.774Z,19.67
2022-07-29T12:29:33.547Z,23.20
2022-07-29T12:32:02.470Z,11.10
2022-07-29T12:34:30.586Z,15.07
2022-07-29T12:36:58.132Z,12.63
2022-07-29T12:39:28.875Z,11.00
2022-07-29T12:42:04.371Z,15.95
2022-07-29T12:44:46.538Z,11.60
2022-07-29T12:47:14.060Z,18.45
2022-07-29T12:49:42.127Z,11.30
2022-07-29T12:52:33.810Z,13.95
2022-07-29T12:55:01.897Z,11.43
2022-07-29T12:57:29.546Z,13.10
2022-07-29T13:00:12.102Z,12.35
2022-07-29T13:02:41.812Z,13.80
2022-07-29T13:05:11.005Z,9.10
2022-07-29T13:07:57.076Z,9.45
2022-07-29T13:10:26.016Z,6.38
2022-07-29T13:13:02.958Z,5.50
2022-07-29T13:15:30.699Z,13.23
2022-07-29T13:17:59.037Z,10.33
2022-07-29T13:20:30.522Z,8.95
2022-07-29T13:23:00.188Z,4.85
2022-07-29T13:25:33.088Z,11.80
2022-07-29T13:28:00.956Z,7.43
2022-07-29T13:30:28.361Z,11.30
2022-07-29T13:32:56.164Z,9.40
2022-07-29T13:35:23.457Z,6.97
2022-07-29T13:37:51.957Z,4.05
2022-07-29T13:40:19.321Z,2.38
2022-07-29T13:42:46.722Z,4.25
2022-07-29T13:45:14.577Z,7.32
2022-07-29T13:47:47.454Z,3.22
2022-07-29T13:50:16.780Z,5.30
2022-07-29T13:52:44.157Z,2.72
2022-07-29T13:55:11.596Z,2.65
2022-07-29T13:57:38.908Z,2.40
2022-07-29T14:00:07.540Z,4.88
2022-07-29T14:02:34.974Z,4.25
2022-07-29T14:05:08.137Z,3.00
2022-07-29T14:07:36.015Z,3.13
2022-07-29T14:10:05.200Z,5.23
2022-07-29T14:12:32.652Z,6.73
2022-07-29T14:14:59.980Z,3.40
2022-07-29T14:17:27.330Z,5.10
2022-07-29T14:19:54.642Z,5.03
2022-07-29T14:22:24.615Z,5.00
2022-07-29T14:24:53.394Z,2.83
2022-07-29T14:27:20.698Z,4.30
2022-07-29T14:30:06.729Z,5.82
2022-07-29T14:32:34.028Z,3.50
2022-07-29T14:35:01.394Z,5.57
2022-07-29T14:37:28.772Z,4.93
2022-07-29T14:40:08.089Z,2.72
2022-07-29T14:42:35.537Z,3.15
2022-07-29T14:45:02.907Z,4.68
2022-07-29T14:47:30.756Z,3.38
2022-07-29T14:49:58.033Z,2.13
2022-07-29T14:52:25.358Z,2.08
2022-07-29T14:54:52.669Z,5.63
2022-07-29T14:57:20.087Z,2.63
2022-07-29T14:59:47.397Z,2.77
2022-07-29T15:02:14.769Z,4.68
2022-07-29T15:04:42.161Z,2.00
2022-07-29T15:07:09.519Z,1.85
2022-07-29T15:09:40.298Z,3.95
2022-07-29T15:12:17.340Z,1.60
2022-07-29T15:14:44.855Z,2.38
2022-07-29T15:17:12.193Z,2.10
2022-07-29T15:19:39.841Z,4.77
2022-07-29T15:22:15.683Z,7.00
2022-07-29T15:24:43.056Z,7.40
2022-07-29T15:27:14.996Z,3.28
2022-07-29T15:29:43.068Z,2.25
2022-07-29T15:32:11.261Z,8.27
2022-07-29T15:34:39.067Z,3.47
2022-07-29T15:37:06.701Z,8.63
2022-07-29T15:39:34.089Z,3.85
2022-07-29T15:42:01.705Z,4.18
2022-07-29T15:44:29.219Z,4.55
2022-07-29T15:47:08.437Z,2.38
2022-07-29T15:49:47.243Z,5.03
2022-07-29T15:52:25.155Z,8.90
2022-07-29T15:54:58.022Z,8.43
2022-07-29T15:57:25.905Z,5.25
2022-07-29T15:59:53.428Z,6.43
2022-07-29T16:02:21.141Z,7.53
2022-07-29T16:04:48.534Z,4.67
2022-07-29T16:07:16.118Z,5.50
2022-07-29T16:09:44.387Z,4.18
2022-07-29T16:12:16.772Z,9.07
2022-07-29T16:14:44.665Z,4.68
2022-07-29T16:17:14.526Z,5.55
2022-07-29T16:19:46.106Z,3.85
2022-07-29T16:22:13.802Z,2.20
2022-07-29T16:24:41.764Z,4.27
2022-07-29T16:27:09.195Z,3.15
2022-07-29T16:29:37.437Z,2.20
2022-07-29T16:32:06.587Z,4.30
2022-07-29T16:34:34.307Z,3.40
2022-07-29T16:37:02.067Z,2.83
2022-07-29T16:39:29.819Z,2.08
2022-07-29T16:42:00.496Z,2.70
2022-07-29T16:44:28.912Z,3.92
2022-07-29T16:46:58.813Z,1.50
2022-07-29T16:49:27.028Z,3.30
2022-07-29T16:51:54.375Z,3.70
2022-07-29T16:54:21.698Z,2.35
2022-07-29T16:56:49.157Z,2.70
2022-07-29T16:59:16.486Z,2.08
2022-07-29T17:01:43.875Z,3.38
2022-07-29T17:04:12.062Z,8.40
2022-07-29T17:06:40.683Z,4.23
2022-07-29T17:09:10.323Z,7.70
2022-07-29T17:11:54.049Z,8.88
2022-07-29T17:14:27.001Z,4.30
2022-07-29T17:17:01.380Z,6.20
2022-07-29T17:19:31.383Z,4.35
2022-07-29T17:22:08.945Z,11.73
2022-07-29T17:24:39.041Z,3.37
2022-07-29T17:27:09.140Z,9.45
2022-07-29T17:29:36.838Z,4.32
2022-07-29T17:32:04.703Z,2.50
2022-07-29T17:34:39.847Z,2.00
2022-07-29T17:37:09.430Z,2.42
2022-07-29T17:39:41.370Z,2.50
2022-07-29T17:42:10.333Z,1.92
2022-07-29T17:44:38.503Z,4.43
2022-07-29T17:47:07.946Z,1.77
2022-07-29T17:49:43.830Z,2.15
2022-07-29T17:52:11.506Z,1.95
2022-07-29T17:54:38.830Z,2.10
2022-07-29T17:57:06.218Z,2.60
2022-07-29T17:59:33.640Z,2.23
2022-07-29T18:02:01.283Z,3.30
2022-07-29T18:04:30.977Z,5.63
2022-07-29T18:06:58.630Z,14.43
2022-07-29T18:09:26.170Z,20.10
2022-07-29T18:11:53.518Z,12.13
2022-07-29T18:14:20.803Z,12.90
2022-07-29T18:16:48.435Z,3.35
2022-07-29T18:19:16.419Z,2.53
2022-07-29T18:21:51.914Z,5.57
2022-07-29T18:24:25.689Z,3.63
2022-07-29T18:26:53.551Z,2.47
2022-07-29T18:29:21.829Z,2.70
2022-07-29T18:31:49.225Z,5.43
2022-07-29T18:34:17.138Z,2.55
2022-07-29T18:36:45.975Z,1.70
2022-07-29T18:39:20.573Z,3.90
2022-07-29T18:41:51.803Z,5.95
2022-07-29T18:44:21.670Z,2.13
2022-07-29T18:46:50.112Z,11.13
2022-07-29T18:49:17.629Z,4.55
2022-07-29T18:51:44.977Z,6.43
2022-07-29T18:54:12.321Z,5.93
2022-07-29T18:56:39.708Z,5.63
2022-07-29T18:59:07.060Z,2.03
2022-07-29T19:01:34.426Z,2.60
2022-07-29T19:04:01.867Z,6.82
2022-07-29T19:06:29.195Z,5.87
2022-07-29T19:08:56.766Z,3.95
2022-07-29T19:11:24.078Z,4.53
2022-07-29T19:13:51.504Z,2.17
2022-07-29T19:16:18.950Z,5.80
2022-07-29T19:18:47.530Z,4.22
2022-07-29T19:21:14.868Z,8.07
2022-07-29T19:24:00.216Z,1.48
2022-07-29T19:26:36.649Z,2.90
2022-07-29T19:29:04.727Z,4.55
2022-07-29T19:31:32.115Z,3.20
2022-07-29T19:33:59.556Z,5.47
2022-07-29T19:36:27.444Z,2.00
2022-07-29T19:38:54.831Z,2.40
2022-07-29T19:41:25.076Z,1.70
2022-07-29T19:43:53.307Z,1.20
2022-07-29T19:46:22.345Z,1.40
2022-07-29T19:48:50.354Z,0.85
2022-07-29T19:51:18.688Z,0.85
2022-07-29T19:53:47.509Z,1.30
2022-07-29T19:56:15.424Z,1.80
2022-07-29T19:58:44.185Z,1.67
2022-07-29T20:01:13.538Z,1.20
2022-07-29T20:03:40.966Z,1.00
2022-07-29T20:06:08.591Z,0.95
2022-07-29T20:08:36.264Z,1.20
2022-07-29T20:11:03.673Z,1.80
2022-07-29T20:13:33.152Z,3.10
2022-07-29T20:16:01.992Z,1.75
2022-07-29T20:18:29.441Z,2.53
2022-07-29T20:20:57.635Z,2.50
2022-07-29T20:23:25.065Z,1.00
2022-07-29T20:25:52.410Z,0.90
2022-07-29T20:28:21.441Z,1.05
2022-07-29T20:30:48.783Z,1.00
2022-07-29T20:33:16.550Z,1.20
2022-07-29T20:35:43.846Z,1.30
2022-07-29T20:38:13.953Z,1.17
2022-07-29T20:40:45.403Z,1.10
2022-07-29T20:43:12.763Z,1.02
2022-07-29T20:45:40.122Z,1.07
2022-07-29T20:48:08.317Z,1.30
2022-07-29T20:50:35.986Z,2.20
2022-07-29T20:53:04.190Z,1.10
2022-07-29T20:55:32.524Z,1.05
2022-07-29T20:58:00.274Z,1.10
2022-07-29T21:00:28.877Z,1.65
2022-07-29T21:02:56.239Z,2.90
2022-07-29T21:05:24.072Z,1.20
2022-07-29T21:07:55.427Z,1.10
2022-07-29T21:10:25.919Z,0.90
2022-07-29T21:12:53.242Z,1.00
2022-07-29T21:15:21.891Z,0.90
2022-07-29T21:17:49.505Z,1.10
2022-07-29T21:20:18.948Z,3.90
2022-07-29T21:22:46.522Z,1.67
2022-07-29T21:25:14.116Z,1.17
2022-07-29T21:28:00.007Z,2.20
2022-07-29T21:30:27.502Z,1.80
2022-07-29T21:32:54.842Z,4.00
2022-07-29T21:35:35.816Z,2.08
2022-07-29T21:38:09.591Z,1.98
2022-07-29T21:40:37.027Z,0.90
2022-07-29T21:43:04.512Z,0.90
2022-07-29T21:45:31.952Z,1.55
2022-07-29T21:47:59.560Z,1.85
2022-07-29T21:50:26.946Z,0.82
2022-07-29T21:52:54.303Z,1.10
2022-07-29T21:55:23.128Z,1.07
2022-07-29T21:57:54.224Z,4.63
2022-07-29T22:00:25.532Z,3.40
2022-07-29T22:02:53.573Z,3.40
2022-07-29T22:05:21.781Z,1.10
2022-07-29T22:07:56.343Z,1.20
2022-07-29T22:10:29.138Z,0.98
2022-07-29T22:12:58.284Z,1.02
2022-07-29T22:15:27.926Z,1.05
2022-07-29T22:17:55.339Z,0.93
2022-07-29T22:20:22.979Z,0.93
2022-07-29T22:22:50.272Z,0.80
2022-07-29T22:25:17.893Z,1.05
2022-07-29T22:27:45.489Z,2.00
2022-07-29T22:30:14.005Z,3.67
2022-07-29T22:32:41.425Z,2.33
2022-07-29T22:35:09.141Z,1.00
2022-07-29T22:37:36.477Z,1.17
2022-07-29T22:40:05.148Z,10.70
2022-07-29T22:42:33.849Z,19.10
2022-07-29T22:45:01.369Z,9.43
2022-07-29T22:47:38.847Z,3.53
2022-07-29T22:50:15.845Z,5.18
2022-07-29T22:52:43.132Z,2.15
2022-07-29T22:55:10.598Z,4.88
2022-07-29T22:57:37.949Z,2.70
2022-07-29T23:00:07.151Z,3.10
2022-07-29T23:02:36.276Z,4.85
2022-07-29T23:05:04.388Z,5.43
2022-07-29T23:07:33.986Z,6.97
2022-07-29T23:10:01.772Z,4.43
2022-07-29T23:12:29.058Z,6.60
2022-07-29T23:14:56.385Z,5.15
2022-07-29T23:17:23.776Z,9.03
2022-07-29T23:19:51.163Z,3.35
2022-07-29T23:22:18.597Z,8.00
2022-07-29T23:24:46.039Z,7.05
2022-07-29T23:27:13.331Z,4.13
2022-07-29T23:29:40.904Z,6.47
2022-07-29T23:32:08.242Z,2.88
2022-07-29T23:34:35.567Z,7.22
2022-07-29T23:37:03.185Z,10.50
2022-07-29T23:39:30.813Z,5.95
2022-07-29T23:41:58.166Z,5.22
2022-07-29T23:44:25.496Z,8.70
2022-07-29T23:46:52.784Z,4.47
2022-07-29T23:49:20.082Z,8.73
2022-07-29T23:51:47.413Z,3.63
2022-07-29T23:54:14.684Z,3.63
2022-07-29T23:56:42.008Z,3.13
2022-07-29T23:59:09.337Z,2.15
